Time;durP1;ratioP1;P1;durP2;ratioP2;P2;SDS_P1;SDS_P2;PMS_P1;PMS_P2;Temp;Humidity;BMP_temperature;BMP_pressure;BME280_temperature;BME280_humidity;BME280_pressure;Samples;Min_cycle;Max_cycle;Signal;HPM_P1;HPM_P2
2023/01/20 00:00:28;;;;;;;21.73;13.67;;;2.80;99.90;;;;;;5053801;28;20445;-58
2023/01/20 00:02:54;;;;;;;19.00;11.90;;;2.80;99.90;;;;;;5054727;28;20469;-57
2023/01/20 00:05:21;;;;;;;19.83;14.47;;;2.70;99.90;;;;;;5054894;28;20435;-58
2023/01/20 00:07:48;;;;;;;19.93;13.57;;;2.70;99.90;;;;;;5054771;28;20455;-58
2023/01/20 00:10:17;;;;;;;19.93;13.73;;;2.60;99.90;;;;;;5054663;28;20453;-57
2023/01/20 00:12:44;;;;;;;19.60;13.37;;;2.60;99.90;;;;;;5054331;28;20476;-57
2023/01/20 00:15:11;;;;;;;20.47;13.50;;;2.50;99.90;;;;;;5054771;28;20454;-58
2023/01/20 00:17:38;;;;;;;22.67;14.03;;;2.60;99.90;;;;;;5054622;28;20451;-58
2023/01/20 00:20:05;;;;;;;19.30;14.03;;;2.60;99.90;;;;;;5054556;28;20466;-58
2023/01/20 00:22:32;;;;;;;19.20;13.53;;;2.60;99.90;;;;;;5054438;28;20471;-58
2023/01/20 00:24:59;;;;;;;24.20;13.80;;;2.60;99.90;;;;;;5054454;28;20801;-58
2023/01/20 00:27:27;;;;;;;22.10;14.10;;;2.60;99.90;;;;;;5053993;28;20483;-58
2023/01/20 00:29:54;;;;;;;19.30;12.60;;;2.60;99.90;;;;;;5054358;28;20458;-57
2023/01/20 00:32:21;;;;;;;20.57;14.63;;;2.60;99.90;;;;;;5054342;28;20537;-58
2023/01/20 00:34:47;;;;;;;26.50;14.70;;;2.70;99.90;;;;;;5054831;28;20466;-58
2023/01/20 00:37:14;;;;;;;25.03;14.60;;;2.70;99.90;;;;;;5053969;28;20938;-58
2023/01/20 00:39:41;;;;;;;24.30;15.07;;;2.80;99.90;;;;;;5053922;28;20854;-58
2023/01/20 00:42:07;;;;;;;21.50;14.00;;;2.80;99.90;;;;;;5054166;28;20867;-58
2023/01/20 00:44:35;;;;;;;24.33;13.53;;;2.70;99.90;;;;;;5054111;28;20882;-57
2023/01/20 00:47:02;;;;;;;22.30;14.43;;;2.80;99.90;;;;;;5054052;28;20561;-58
2023/01/20 00:49:29;;;;;;;24.33;14.17;;;2.80;99.90;;;;;;5053738;28;20442;-58
2023/01/20 00:51:56;;;;;;;22.70;14.00;;;2.80;99.90;;;;;;5053903;28;20836;-57
2023/01/20 00:54:22;;;;;;;27.57;14.37;;;2.90;99.90;;;;;;5053998;28;20456;-58
2023/01/20 00:56:49;;;;;;;26.80;15.10;;;2.90;99.90;;;;;;5053887;28;20451;-58
2023/01/20 00:59:16;;;;;;;24.10;14.23;;;2.90;99.90;;;;;;5053872;28;20461;-58
2023/01/20 01:01:44;;;;;;;22.73;15.33;;;3.00;99.90;;;;;;5052558;28;20469;-57
2023/01/20 01:04:11;;;;;;;23.73;15.30;;;2.90;99.90;;;;;;5054624;28;20887;-58
2023/01/20 01:06:38;;;;;;;27.10;15.30;;;2.90;99.90;;;;;;5053666;28;20485;-58
2023/01/20 01:09:05;;;;;;;24.60;16.70;;;2.80;99.90;;;;;;5053361;28;21000;-58
2023/01/20 01:11:32;;;;;;;29.10;18.37;;;2.80;99.90;;;;;;5053536;28;20432;-58
2023/01/20 01:13:59;;;;;;;30.93;18.43;;;2.80;99.90;;;;;;5053262;28;20468;-57
2023/01/20 01:16:25;;;;;;;32.40;19.00;;;2.80;99.90;;;;;;5053548;28;20448;-58
2023/01/20 01:18:54;;;;;;;31.60;18.97;;;2.70;99.90;;;;;;5053236;28;21000;-58
2023/01/20 01:21:22;;;;;;;25.80;16.73;;;2.70;99.90;;;;;;5053086;28;20871;-57
2023/01/20 01:23:50;;;;;;;31.97;18.73;;;2.70;99.90;;;;;;5053211;28;20449;-57
2023/01/20 01:26:17;;;;;;;29.70;17.80;;;2.70;99.90;;;;;;5053126;28;20545;-58
2023/01/20 01:28:46;;;;;;;28.10;17.10;;;2.60;99.90;;;;;;5053057;28;20947;-57
2023/01/20 01:31:13;;;;;;;32.40;17.83;;;2.60;99.90;;;;;;5053408;28;20870;-58
2023/01/20 01:33:41;;;;;;;25.57;16.73;;;2.60;99.90;;;;;;5053324;28;20469;-57
2023/01/20 01:36:13;;;;;;;33.13;19.00;;;2.60;99.90;;;;;;5053290;28;20443;-58
2023/01/20 01:38:40;;;;;;;28.43;16.80;;;2.50;99.90;;;;;;5053253;28;20526;-57
2023/01/20 01:41:07;;;;;;;25.83;15.97;;;2.60;99.90;;;;;;5053123;28;20816;-58
2023/01/20 01:43:36;;;;;;;30.67;19.07;;;2.60;99.90;;;;;;5053098;28;20474;-57
2023/01/20 01:46:03;;;;;;;28.87;17.00;;;2.60;99.90;;;;;;5053214;28;20450;-58
2023/01/20 01:48:35;;;;;;;25.90;17.20;;;2.70;99.90;;;;;;5053227;28;20816;-58
2023/01/20 01:51:05;;;;;;;29.10;17.83;;;2.60;99.90;;;;;;5053131;28;20817;-57
2023/01/20 01:53:39;;;;;;;25.07;16.03;;;2.70;99.90;;;;;;5053345;28;20469;-57
2023/01/20 01:56:06;;;;;;;29.13;18.00;;;2.70;99.90;;;;;;5052941;28;20911;-58
2023/01/20 01:58:37;;;;;;;35.20;19.80;;;2.70;99.90;;;;;;5053108;28;20450;-58
2023/01/20 02:01:04;;;;;;;32.10;17.77;;;2.70;99.90;;;;;;5053441;28;20938;-58
2023/01/20 02:03:38;;;;;;;30.07;19.60;;;2.80;99.90;;;;;;5052900;28;20465;-57
2023/01/20 02:06:05;;;;;;;31.50;19.17;;;2.80;99.90;;;;;;5053217;28;20427;-57
2023/01/20 02:08:34;;;;;;;28.60;19.17;;;2.80;99.90;;;;;;5053632;28;20447;-58
2023/01/20 02:11:00;;;;;;;36.73;20.53;;;2.80;99.90;;;;;;5052983;28;20474;-57
2023/01/20 02:13:27;;;;;;;34.23;20.97;;;2.80;99.90;;;;;;5052972;28;20474;-56
2023/01/20 02:16:03;;;;;;;37.53;22.57;;;2.70;99.90;;;;;;5052645;28;20962;-58
2023/01/20 02:18:44;;;;;;;36.33;21.20;;;2.80;99.90;;;;;;5053011;28;20519;-58
2023/01/20 02:21:46;;;;;;;40.77;24.40;;;2.80;99.90;;;;;;5053540;28;20438;-56
2023/01/20 02:24:50;;;;;;;39.30;23.97;;;2.80;99.90;;;;;;5052981;28;20446;-57
2023/01/20 02:27:25;;;;;;;43.00;23.43;;;2.70;99.90;;;;;;5055320;28;20493;-57
2023/01/20 02:30:18;;;;;;;35.70;21.07;;;2.70;99.90;;;;;;5056296;28;20901;-56
2023/01/20 02:32:53;;;;;;;39.60;22.13;;;2.70;99.90;;;;;;5056567;28;20489;-57
2023/01/20 02:35:25;;;;;;;38.00;22.30;;;2.70;99.90;;;;;;5056735;28;20430;-58
2023/01/20 02:37:58;;;;;;;39.00;21.13;;;2.80;99.90;;;;;;5056499;28;20430;-57
2023/01/20 02:40:31;;;;;;;36.77;21.50;;;2.80;99.90;;;;;;5056504;28;20430;-57
2023/01/20 02:43:04;;;;;;;41.50;21.33;;;2.90;99.90;;;;;;5056354;28;20480;-56
2023/01/20 02:45:37;;;;;;;38.27;20.60;;;2.90;99.90;;;;;;5056462;28;20425;-57
2023/01/20 02:48:12;;;;;;;39.53;21.03;;;2.80;99.90;;;;;;5056019;28;20470;-57
2023/01/20 02:50:45;;;;;;;33.13;19.83;;;2.80;99.90;;;;;;5056223;28;20438;-57
2023/01/20 02:53:14;;;;;;;33.10;19.40;;;2.90;99.90;;;;;;5056193;28;20479;-57
2023/01/20 02:55:44;;;;;;;35.20;19.80;;;2.90;99.90;;;;;;5055892;28;20848;-57
2023/01/20 02:58:14;;;;;;;33.13;19.33;;;2.90;99.90;;;;;;5056121;28;20453;-58
2023/01/20 03:00:44;;;;;;;30.63;18.93;;;2.90;99.90;;;;;;5055816;28;20831;-57
2023/01/20 03:03:19;;;;;;;35.67;19.27;;;2.90;99.90;;;;;;5055975;28;20473;-58
2023/01/20 03:05:52;;;;;;;35.23;18.57;;;2.90;99.90;;;;;;5056103;28;20436;-58
2023/01/20 03:08:20;;;;;;;31.97;18.23;;;2.90;99.90;;;;;;5055874;28;20474;-57
2023/01/20 03:10:49;;;;;;;35.50;19.77;;;2.90;99.90;;;;;;5055969;28;20456;-57
2023/01/20 03:13:21;;;;;;;25.70;17.10;;;2.90;99.90;;;;;;5055434;28;20477;-57
2023/01/20 03:15:55;;;;;;;26.90;17.30;;;2.80;99.90;;;;;;5055821;28;20435;-58
2023/01/20 03:18:24;;;;;;;30.07;17.70;;;2.80;99.90;;;;;;5055863;28;20430;-58
2023/01/20 03:20:51;;;;;;;30.00;16.97;;;2.70;99.90;;;;;;5056472;28;20450;-58
2023/01/20 03:23:18;;;;;;;27.53;16.87;;;2.70;99.90;;;;;;5055673;28;20470;-58
2023/01/20 03:25:47;;;;;;;36.20;16.10;;;2.60;99.90;;;;;;5055583;28;20461;-57
2023/01/20 03:28:14;;;;;;;29.73;18.40;;;2.60;99.90;;;;;;5055614;28;20477;-58
2023/01/20 03:30:41;;;;;;;31.40;17.27;;;2.50;99.90;;;;;;5055561;28;20476;-58
2023/01/20 03:33:08;;;;;;;28.03;16.43;;;2.50;99.90;;;;;;5055560;28;20478;-58
2023/01/20 03:35:37;;;;;;;27.73;17.30;;;2.50;99.90;;;;;;5055459;28;20450;-57
2023/01/20 03:38:04;;;;;;;30.90;16.70;;;2.50;99.90;;;;;;5054892;28;20450;-57
2023/01/20 03:40:38;;;;;;;31.37;17.27;;;2.40;99.90;;;;;;5055081;28;20462;-58
2023/01/20 03:43:12;;;;;;;26.90;16.50;;;2.50;99.90;;;;;;5055032;28;20485;-57
2023/01/20 03:45:46;;;;;;;28.80;16.93;;;2.50;99.90;;;;;;5055415;28;20461;-58
2023/01/20 03:48:17;;;;;;;29.80;15.67;;;2.50;99.90;;;;;;5055256;28;20473;-58
2023/01/20 03:50:52;;;;;;;26.33;16.43;;;2.60;99.90;;;;;;5055279;28;20438;-58
2023/01/20 03:53:28;;;;;;;26.43;17.10;;;2.60;99.90;;;;;;5055356;28;20469;-58
2023/01/20 03:56:02;;;;;;;26.50;15.87;;;2.60;99.90;;;;;;5055321;28;20434;-57
2023/01/20 03:58:31;;;;;;;24.87;16.70;;;2.70;99.90;;;;;;5054618;28;20441;-58
2023/01/20 04:01:00;;;;;;;28.20;16.10;;;2.70;99.90;;;;;;5054651;28;20966;-57
2023/01/20 04:03:31;;;;;;;26.23;16.70;;;2.80;99.90;;;;;;5054895;28;20473;-58
2023/01/20 04:06:01;;;;;;;23.93;16.40;;;2.80;99.90;;;;;;5054976;28;20445;-58
2023/01/20 04:08:32;;;;;;;28.70;16.57;;;2.80;99.90;;;;;;5055085;28;20493;-58
2023/01/20 04:11:03;;;;;;;31.67;16.90;;;2.80;99.90;;;;;;5054719;28;20434;-57
2023/01/20 04:13:29;;;;;;;31.70;17.80;;;2.70;99.90;;;;;;5054690;28;20469;-57
2023/01/20 04:15:58;;;;;;;26.37;16.33;;;2.70;99.90;;;;;;5054730;28;20454;-58
2023/01/20 04:18:25;;;;;;;25.73;15.93;;;2.70;99.90;;;;;;5054368;28;20434;-58
2023/01/20 04:20:59;;;;;;;28.17;17.60;;;2.70;99.90;;;;;;5054133;28;20994;-57
2023/01/20 04:23:31;;;;;;;27.40;16.70;;;2.60;99.90;;;;;;5054488;28;20469;-57
2023/01/20 04:25:58;;;;;;;29.20;18.00;;;2.50;99.90;;;;;;5054376;28;20473;-58
2023/01/20 04:28:25;;;;;;;25.17;14.93;;;2.50;99.90;;;;;;5054421;28;20477;-57
2023/01/20 04:30:52;;;;;;;27.20;16.97;;;2.50;99.90;;;;;;5054094;28;20454;-57
2023/01/20 04:33:19;;;;;;;27.33;16.60;;;2.60;99.90;;;;;;5053994;28;20837;-57
2023/01/20 04:35:46;;;;;;;28.90;16.87;;;2.60;99.90;;;;;;5054319;28;20454;-58
2023/01/20 04:38:13;;;;;;;28.07;16.60;;;2.70;99.90;;;;;;5052811;28;20863;-58
2023/01/20 04:40:41;;;;;;;26.07;17.10;;;2.70;99.90;;;;;;5054660;28;20462;-57
2023/01/20 04:43:08;;;;;;;28.80;18.20;;;2.60;99.90;;;;;;5054102;28;20905;-57
2023/01/20 04:45:35;;;;;;;29.00;18.23;;;2.60;99.90;;;;;;5053915;28;20455;-58
2023/01/20 04:48:06;;;;;;;27.77;17.00;;;2.50;99.90;;;;;;5053793;28;20493;-57
2023/01/20 04:50:33;;;;;;;30.67;15.83;;;2.50;99.90;;;;;;5053714;28;20438;-57
2023/01/20 04:52:59;;;;;;;29.27;16.00;;;2.50;99.90;;;;;;5053880;28;20497;-57
2023/01/20 04:55:26;;;;;;;25.57;16.40;;;2.60;99.90;;;;;;5053836;28;20457;-57
2023/01/20 04:57:55;;;;;;;25.50;15.30;;;2.60;99.90;;;;;;5054064;28;20439;-58
2023/01/20 05:00:21;;;;;;;21.27;14.93;;;2.60;99.90;;;;;;5053906;28;20465;-57
2023/01/20 05:02:48;;;;;;;24.43;15.60;;;2.70;99.90;;;;;;5054004;28;20476;-58
2023/01/20 05:05:15;;;;;;;28.33;15.27;;;2.70;99.90;;;;;;5053678;28;20922;-58
2023/01/20 05:07:42;;;;;;;25.40;15.97;;;2.70;99.90;;;;;;5054049;28;20485;-58
2023/01/20 05:10:10;;;;;;;23.40;14.37;;;2.70;99.90;;;;;;5054167;28;20436;-57
2023/01/20 05:12:36;;;;;;;23.40;14.80;;;2.70;99.90;;;;;;5054162;28;20470;-57
2023/01/20 05:15:06;;;;;;;23.57;15.87;;;2.70;99.90;;;;;;5054413;28;20491;-58
2023/01/20 05:17:32;;;;;;;26.17;13.80;;;2.70;99.90;;;;;;5053955;28;20422;-58
2023/01/20 05:19:59;;;;;;;25.03;15.50;;;2.70;99.90;;;;;;5054085;28;20471;-58
2023/01/20 05:22:27;;;;;;;26.13;15.73;;;2.70;99.90;;;;;;5053164;28;20465;-57
2023/01/20 05:24:53;;;;;;;22.53;15.00;;;2.60;99.90;;;;;;5055838;28;20450;-57
2023/01/20 05:27:20;;;;;;;25.03;15.70;;;2.60;99.90;;;;;;5054871;28;20494;-58
2023/01/20 05:29:47;;;;;;;29.37;14.50;;;2.60;99.90;;;;;;5054213;28;20450;-58
2023/01/20 05:32:15;;;;;;;24.17;15.40;;;2.60;99.90;;;;;;5053634;28;20473;-57
2023/01/20 05:34:41;;;;;;;25.70;15.70;;;2.60;99.90;;;;;;5053300;28;20457;-58
2023/01/20 05:37:08;;;;;;;23.53;14.87;;;2.60;99.90;;;;;;5053752;28;20475;-57
2023/01/20 05:39:35;;;;;;;23.50;14.57;;;2.70;99.90;;;;;;5053659;28;20477;-58
2023/01/20 05:42:02;;;;;;;27.00;15.40;;;2.70;99.90;;;;;;5053263;28;20841;-57
2023/01/20 05:44:29;;;;;;;29.77;18.13;;;2.70;99.90;;;;;;5052978;28;20457;-57
2023/01/20 05:46:55;;;;;;;24.03;15.40;;;2.70;99.90;;;;;;5053276;28;20535;-57
2023/01/20 05:49:24;;;;;;;27.00;16.07;;;2.80;99.90;;;;;;5053205;28;20489;-58
2023/01/20 05:51:50;;;;;;;24.27;16.00;;;2.90;99.90;;;;;;5052871;28;20485;-57
2023/01/20 05:54:17;;;;;;;24.63;16.60;;;2.90;99.90;;;;;;5053421;28;20434;-58
2023/01/20 05:56:44;;;;;;;25.83;16.37;;;2.80;99.90;;;;;;5052843;28;21007;-57
2023/01/20 05:59:11;;;;;;;24.83;15.73;;;2.90;99.90;;;;;;5053306;28;20442;-58
2023/01/20 06:01:37;;;;;;;23.70;17.03;;;2.90;99.90;;;;;;5056390;28;20937;-58
2023/01/20 06:04:04;;;;;;;25.63;17.33;;;2.90;99.90;;;;;;5057172;28;20446;-58
2023/01/20 06:06:33;;;;;;;31.27;18.13;;;2.90;99.90;;;;;;5057270;28;20447;-57
2023/01/20 06:08:59;;;;;;;24.20;15.73;;;2.90;99.90;;;;;;5057121;28;20493;-58
2023/01/20 06:11:26;;;;;;;25.73;16.20;;;3.00;99.90;;;;;;5056897;28;20456;-57
2023/01/20 06:13:53;;;;;;;26.60;17.90;;;3.00;99.90;;;;;;5056999;28;20453;-57
2023/01/20 06:16:20;;;;;;;27.13;18.57;;;3.00;99.90;;;;;;5056622;28;20461;-58
2023/01/20 06:18:47;;;;;;;31.40;19.07;;;3.00;99.90;;;;;;5056658;28;20820;-58
2023/01/20 06:21:13;;;;;;;27.63;17.93;;;3.00;99.90;;;;;;5056615;28;20979;-58
2023/01/20 06:23:42;;;;;;;28.47;18.03;;;3.10;99.90;;;;;;5056450;28;20472;-57
2023/01/20 06:26:12;;;;;;;27.57;17.83;;;3.00;99.90;;;;;;5055490;28;20471;-57
2023/01/20 06:28:39;;;;;;;25.97;17.37;;;3.00;99.90;;;;;;5056371;28;20997;-58
2023/01/20 06:31:07;;;;;;;29.90;17.47;;;2.90;99.90;;;;;;5056600;28;20445;-57
2023/01/20 06:33:35;;;;;;;26.57;17.43;;;2.80;99.90;;;;;;5056660;28;20468;-57
2023/01/20 06:36:02;;;;;;;25.07;17.80;;;2.70;99.90;;;;;;5056602;28;20866;-57
2023/01/20 06:38:31;;;;;;;27.60;18.27;;;2.70;99.90;;;;;;5055158;28;20906;-58
2023/01/20 06:41:00;;;;;;;27.53;18.43;;;2.60;99.90;;;;;;5056419;28;20458;-57
2023/01/20 06:43:28;;;;;;;27.83;16.73;;;2.60;99.90;;;;;;5056192;28;20977;-57
2023/01/20 06:45:59;;;;;;;32.03;18.80;;;2.70;99.90;;;;;;5056225;28;21027;-57
2023/01/20 06:48:25;;;;;;;37.17;18.87;;;2.60;99.90;;;;;;5056731;28;20480;-58
2023/01/20 06:50:52;;;;;;;28.30;18.23;;;2.60;99.90;;;;;;5056482;28;20453;-57
2023/01/20 06:53:19;;;;;;;24.80;17.73;;;2.60;99.90;;;;;;5056163;28;20851;-57
2023/01/20 06:55:54;;;;;;;30.17;18.07;;;2.60;99.90;;;;;;5055964;28;20794;-58
2023/01/20 06:58:23;;;;;;;25.20;16.80;;;2.50;99.90;;;;;;5056312;28;20874;-57
2023/01/20 07:00:50;;;;;;;27.47;17.37;;;2.60;99.90;;;;;;5056151;28;20431;-57
2023/01/20 07:03:17;;;;;;;22.53;16.13;;;2.60;99.90;;;;;;5055859;28;20470;-57
2023/01/20 07:05:44;;;;;;;32.00;18.07;;;2.60;99.90;;;;;;5056159;28;20448;-58
2023/01/20 07:08:11;;;;;;;26.33;17.60;;;2.50;99.90;;;;;;5056074;28;20868;-58
2023/01/20 07:10:38;;;;;;;33.30;19.27;;;2.50;99.90;;;;;;5055963;28;20461;-56
2023/01/20 07:13:05;;;;;;;33.83;19.27;;;2.50;99.90;;;;;;5055091;28;20830;-57
2023/01/20 07:15:33;;;;;;;29.13;18.13;;;2.50;99.90;;;;;;5055933;28;20439;-57
2023/01/20 07:18:00;;;;;;;28.03;17.53;;;2.60;99.90;;;;;;5055953;28;20449;-57
2023/01/20 07:20:26;;;;;;;30.27;18.83;;;2.70;99.90;;;;;;5055543;28;20467;-56
2023/01/20 07:22:53;;;;;;;33.47;17.47;;;2.80;99.90;;;;;;5055828;28;20511;-57
2023/01/20 07:25:20;;;;;;;28.80;18.63;;;2.80;99.90;;;;;;5055825;28;20431;-58
2023/01/20 07:27:48;;;;;;;32.83;19.00;;;2.70;99.90;;;;;;5055150;28;20465;-58
2023/01/20 07:30:15;;;;;;;25.03;17.07;;;2.70;99.90;;;;;;5055414;28;20451;-57
2023/01/20 07:32:43;;;;;;;26.50;17.90;;;2.80;99.90;;;;;;5055625;28;20481;-57
2023/01/20 07:35:10;;;;;;;29.43;18.10;;;2.80;99.90;;;;;;5055318;28;20919;-58
2023/01/20 07:37:37;;;;;;;33.20;17.47;;;2.80;99.90;;;;;;5055569;28;20450;-58
2023/01/20 07:40:04;;;;;;;27.60;17.77;;;2.80;99.90;;;;;;5055465;28;20438;-57
2023/01/20 07:42:31;;;;;;;27.03;17.83;;;2.70;99.90;;;;;;5055841;28;20483;-57
2023/01/20 07:44:57;;;;;;;29.03;18.23;;;2.80;99.90;;;;;;5055431;28;20430;-58
2023/01/20 07:47:24;;;;;;;29.83;18.37;;;2.80;99.90;;;;;;5057262;28;20451;-57
2023/01/20 07:49:54;;;;;;;27.07;17.13;;;2.90;99.90;;;;;;5063301;28;20608;-56
2023/01/20 07:52:21;;;;;;;28.70;18.60;;;3.00;99.90;;;;;;5060139;28;20479;-57
2023/01/20 07:54:48;;;;;;;23.63;15.60;;;3.00;99.90;;;;;;5055164;28;20434;-57
2023/01/20 07:57:14;;;;;;;25.53;16.73;;;3.10;99.90;;;;;;5054811;28;20918;-56
2023/01/20 07:59:41;;;;;;;25.63;17.10;;;3.10;99.90;;;;;;5054749;28;20901;-57
2023/01/20 08:02:09;;;;;;;27.13;16.80;;;3.20;99.90;;;;;;5054919;28;20465;-57
2023/01/20 08:04:36;;;;;;;24.90;17.60;;;3.20;99.90;;;;;;5054894;28;20431;-56
2023/01/20 08:07:04;;;;;;;30.10;18.20;;;3.30;99.90;;;;;;5055283;28;20428;-56
2023/01/20 08:09:31;;;;;;;23.37;16.80;;;3.30;99.90;;;;;;5055056;28;20475;-57
2023/01/20 08:11:57;;;;;;;28.90;18.43;;;3.30;99.90;;;;;;5054851;28;21021;-56
2023/01/20 08:14:24;;;;;;;30.43;18.63;;;3.30;99.90;;;;;;5053963;28;20956;-57
2023/01/20 08:16:51;;;;;;;26.57;18.27;;;3.40;99.90;;;;;;5054232;28;20447;-56
2023/01/20 08:19:18;;;;;;;23.77;18.57;;;3.40;99.90;;;;;;5055101;28;20801;-57
2023/01/20 08:21:45;;;;;;;23.73;16.47;;;3.40;99.90;;;;;;5054960;28;21050;-57
2023/01/20 08:24:13;;;;;;;26.20;16.80;;;3.50;99.90;;;;;;5055523;28;20431;-56
2023/01/20 08:26:39;;;;;;;33.43;18.27;;;3.60;99.90;;;;;;5054750;28;20467;-56
2023/01/20 08:29:08;;;;;;;27.63;17.07;;;3.60;99.90;;;;;;5054538;28;20490;-57
2023/01/20 08:31:35;;;;;;;22.80;15.73;;;3.60;99.90;;;;;;5054988;28;20443;-57
2023/01/20 08:34:03;;;;;;;26.50;17.13;;;3.70;99.90;;;;;;5054415;28;20443;-57
2023/01/20 08:36:31;;;;;;;24.20;16.93;;;3.70;99.90;;;;;;5054365;28;20441;-57
2023/01/20 08:39:00;;;;;;;31.37;17.70;;;3.80;99.90;;;;;;5054122;28;20435;-57
2023/01/20 08:41:30;;;;;;;24.40;16.60;;;3.90;99.90;;;;;;5053777;28;20453;-56
2023/01/20 08:43:58;;;;;;;25.70;16.83;;;3.90;99.90;;;;;;5054142;28;20433;-56
2023/01/20 08:46:26;;;;;;;30.17;16.07;;;3.90;99.90;;;;;;5054505;28;20511;-56
2023/01/20 08:48:53;;;;;;;25.13;16.60;;;3.90;99.90;;;;;;5053778;28;20466;-56
2023/01/20 08:51:22;;;;;;;22.60;16.00;;;4.00;99.90;;;;;;5053673;28;20611;-56
2023/01/20 08:53:49;;;;;;;24.03;14.93;;;4.00;99.90;;;;;;5053973;28;20777;-56
2023/01/20 08:56:17;;;;;;;20.67;15.70;;;4.10;99.90;;;;;;5054773;28;20436;-56
2023/01/20 08:58:47;;;;;;;22.13;15.60;;;4.20;99.90;;;;;;5054852;28;20481;-56
2023/01/20 09:01:16;;;;;;;23.90;16.10;;;4.30;99.90;;;;;;5053833;28;20506;-57
2023/01/20 09:03:43;;;;;;;23.43;17.50;;;4.50;99.90;;;;;;5053795;28;20558;-57
2023/01/20 09:06:10;;;;;;;20.77;14.67;;;4.50;99.90;;;;;;5053521;28;20437;-56
2023/01/20 09:08:38;;;;;;;24.60;16.73;;;4.60;99.90;;;;;;5054048;28;20469;-56
2023/01/20 09:11:07;;;;;;;20.20;15.30;;;4.60;99.90;;;;;;5053720;28;20514;-56
2023/01/20 09:13:34;;;;;;;21.47;14.70;;;4.60;99.90;;;;;;5053357;28;20482;-56
2023/01/20 09:16:03;;;;;;;22.67;14.47;;;4.60;99.90;;;;;;5053398;28;20815;-56
2023/01/20 09:18:30;;;;;;;25.47;15.60;;;4.60;99.90;;;;;;5053328;28;20480;-56
2023/01/20 09:20:57;;;;;;;20.30;13.83;;;4.70;99.90;;;;;;5054128;28;20455;-57
2023/01/20 09:23:24;;;;;;;23.50;16.00;;;4.80;99.90;;;;;;5053478;28;20555;-56
2023/01/20 09:25:51;;;;;;;18.27;12.30;;;4.80;99.90;;;;;;5053394;28;20430;-57
2023/01/20 09:28:18;;;;;;;19.10;13.80;;;4.80;99.30;;;;;;5052388;28;20445;-56
2023/01/20 09:30:45;;;;;;;22.73;13.47;;;4.90;99.00;;;;;;5053387;28;20425;-56
2023/01/20 09:33:13;;;;;;;21.87;12.43;;;4.90;98.70;;;;;;5053087;28;20874;-56
2023/01/20 09:35:40;;;;;;;20.30;12.27;;;4.90;98.90;;;;;;5053136;28;20498;-56
2023/01/20 09:43:55;;;;;;;18.87;11.13;;;4.80;98.50;;;;;;5030408;28;20511;-57
2023/01/20 09:46:34;;;;;;;13.90;10.80;;;4.80;98.50;;;;;;5053455;28;20434;-56
2023/01/20 09:54:56;;;;;;;15.53;11.20;;;4.80;98.60;;;;;;5053332;28;20408;-56
2023/01/20 09:57:27;;;;;;;22.40;13.07;;;4.80;98.70;;;;;;5053302;28;20437;-57
2023/01/20 10:00:01;;;;;;;14.90;11.70;;;4.80;98.60;;;;;;5053208;28;20432;-57
2023/01/20 10:02:34;;;;;;;17.40;11.77;;;4.80;98.80;;;;;;5053210;28;20472;-57
2023/01/20 10:05:11;;;;;;;18.87;12.93;;;4.90;98.90;;;;;;5053246;28;20430;-56
2023/01/20 10:07:43;;;;;;;19.53;12.53;;;4.90;98.80;;;;;;5053126;28;20433;-57
2023/01/20 10:10:18;;;;;;;19.57;12.00;;;4.90;99.40;;;;;;5052817;28;20968;-57
2023/01/20 10:12:49;;;;;;;21.60;13.00;;;4.90;99.10;;;;;;5053107;28;20472;-56
2023/01/20 10:15:20;;;;;;;20.03;11.93;;;5.00;99.10;;;;;;5053063;28;20446;-57
2023/01/20 10:17:53;;;;;;;15.20;10.57;;;5.00;98.90;;;;;;5052031;28;20446;-56
2023/01/20 10:20:31;;;;;;;17.60;11.70;;;5.00;98.90;;;;;;5052848;28;20447;-56
2023/01/20 10:23:03;;;;;;;17.87;13.23;;;4.90;98.80;;;;;;5053005;28;20469;-57
2023/01/20 10:25:36;;;;;;;18.80;12.67;;;4.90;98.90;;;;;;5053062;28;20445;-56
2023/01/20 10:28:08;;;;;;;21.57;13.20;;;4.90;99.00;;;;;;5053035;28;20425;-57
2023/01/20 10:30:37;;;;;;;14.97;11.50;;;4.90;99.10;;;;;;5052861;28;20483;-56
2023/01/20 10:33:09;;;;;;;13.63;9.70;;;4.80;99.00;;;;;;5052887;28;20920;-56
2023/01/20 10:35:40;;;;;;;15.47;11.40;;;4.80;99.10;;;;;;5052840;28;20458;-56
2023/01/20 10:38:18;;;;;;;13.90;10.87;;;4.80;99.20;;;;;;5052941;28;20439;-56
2023/01/20 10:40:51;;;;;;;16.73;11.40;;;4.70;99.40;;;;;;5052695;28;20561;-55
2023/01/20 10:43:18;;;;;;;16.63;11.10;;;4.70;99.50;;;;;;5052623;28;20469;-56
2023/01/20 10:46:08;;;;;;;16.33;11.83;;;4.70;99.70;;;;;;5052494;28;20912;-56
2023/01/20 10:48:49;;;;;;;18.93;10.20;;;4.70;99.50;;;;;;5055914;28;20430;-56
2023/01/20 10:51:23;;;;;;;16.37;11.10;;;4.70;99.60;;;;;;5056493;28;20438;-56
2023/01/20 10:54:14;;;;;;;14.93;9.83;;;4.70;99.50;;;;;;5056330;28;20438;-56
2023/01/20 10:56:43;;;;;;;15.73;10.43;;;4.60;99.60;;;;;;5056398;28;20433;-56
2023/01/20 10:59:14;;;;;;;17.33;10.90;;;4.70;99.80;;;;;;5056428;28;20436;-56
2023/01/20 11:01:46;;;;;;;20.27;11.90;;;4.70;99.90;;;;;;5056266;28;20465;-56
2023/01/20 11:04:18;;;;;;;17.93;11.03;;;4.70;99.90;;;;;;5056357;28;20447;-56
2023/01/20 11:06:49;;;;;;;16.30;10.80;;;4.70;99.90;;;;;;5056115;28;20433;-56
2023/01/20 11:09:22;;;;;;;20.03;12.77;;;4.70;99.90;;;;;;5056145;28;20530;-56
2023/01/20 11:11:50;;;;;;;22.30;12.50;;;4.80;99.90;;;;;;5056231;28;20480;-56
2023/01/20 11:14:17;;;;;;;18.03;10.90;;;4.80;99.90;;;;;;5056103;28;20435;-56
2023/01/20 11:16:46;;;;;;;17.13;10.00;;;4.80;99.90;;;;;;5055612;28;20459;-55
2023/01/20 11:19:13;;;;;;;19.00;11.77;;;4.80;99.90;;;;;;5054539;28;20489;-55
2023/01/20 11:21:40;;;;;;;20.93;11.80;;;4.80;99.90;;;;;;5055433;28;20465;-56
2023/01/20 11:24:30;;;;;;;14.80;10.67;;;4.80;99.90;;;;;;5055902;28;20430;-56
2023/01/20 11:27:03;;;;;;;17.50;10.73;;;4.80;99.90;;;;;;5055438;28;20457;-56
2023/01/20 11:29:33;;;;;;;9.90;8.67;;;4.80;99.90;;;;;;5055056;28;20488;-56
2023/01/20 11:32:00;;;;;;;17.10;10.33;;;4.80;99.90;;;;;;5055441;28;20466;-55
2023/01/20 11:34:29;;;;;;;15.13;10.77;;;4.70;99.90;;;;;;5055394;28;20442;-56
2023/01/20 11:37:17;;;;;;;15.30;10.63;;;4.70;99.90;;;;;;5056072;28;20452;-55
2023/01/20 11:39:59;;;;;;;18.73;10.23;;;4.70;99.90;;;;;;5055973;28;20426;-55
2023/01/20 11:42:29;;;;;;;17.07;10.77;;;4.60;99.90;;;;;;5055887;28;20985;-55
2023/01/20 11:44:58;;;;;;;19.00;11.27;;;4.60;99.90;;;;;;5056111;28;20906;-55
2023/01/20 11:47:27;;;;;;;19.23;11.43;;;4.60;99.90;;;;;;5056436;28;20446;-55
2023/01/20 11:50:24;;;;;;;18.17;11.63;;;4.50;99.90;;;;;;5057137;28;20936;-55
2023/01/20 11:52:51;;;;;;;17.93;10.60;;;4.60;99.90;;;;;;5055987;28;20472;-56
2023/01/20 11:55:22;;;;;;;17.87;11.20;;;4.50;99.90;;;;;;5055469;28;20432;-56
2023/01/20 11:57:52;;;;;;;17.10;10.00;;;4.50;99.90;;;;;;5054925;28;20469;-56
2023/01/20 12:00:38;;;;;;;14.70;9.40;;;4.50;99.90;;;;;;5055023;28;20964;-58
2023/01/20 12:03:41;;;;;;;15.80;10.67;;;4.50;99.90;;;;;;5055146;28;20465;-57
2023/01/20 12:06:17;;;;;;;14.17;9.77;;;4.50;99.90;;;;;;5053216;28;20453;-56
2023/01/20 12:08:49;;;;;;;14.70;8.40;;;4.40;99.90;;;;;;5054922;28;20426;-57
2023/01/20 12:11:23;;;;;;;14.53;9.53;;;4.40;99.90;;;;;;5054918;28;20432;-57
2023/01/20 12:17:13;;;;;;;10.20;8.30;;;4.30;99.90;;;;;;5038906;28;20571;-57
2023/01/20 12:19:53;;;;;;;13.50;10.27;;;4.30;99.90;;;;;;5054766;28;20478;-57
2023/01/20 12:22:25;;;;;;;14.83;9.90;;;4.30;99.90;;;;;;5055146;28;20474;-57
2023/01/20 12:25:07;;;;;;;14.13;9.17;;;4.30;99.90;;;;;;5054611;28;20441;-57
2023/01/20 12:27:41;;;;;;;11.97;7.20;;;4.30;99.90;;;;;;5054246;28;20463;-57
2023/01/20 12:30:33;;;;;;;6.93;5.33;;;4.30;99.90;;;;;;5054447;28;20464;-57
2023/01/20 12:33:00;;;;;;;6.57;4.20;;;4.20;99.90;;;;;;5054374;28;20466;-57
2023/01/20 12:35:33;;;;;;;9.70;4.47;;;4.10;99.90;;;;;;5054113;28;20472;-57
2023/01/20 12:38:06;;;;;;;5.97;4.50;;;4.00;99.90;;;;;;5054404;28;20466;-57
2023/01/20 12:40:40;;;;;;;4.60;4.00;;;4.00;99.90;;;;;;5053930;28;20909;-57
2023/01/20 12:43:33;;;;;;;9.17;5.20;;;4.00;99.90;;;;;;5054121;28;20470;-57
2023/01/20 12:46:10;;;;;;;6.87;4.33;;;4.00;99.90;;;;;;5054145;28;20433;-58
2023/01/20 12:48:49;;;;;;;5.53;4.93;;;4.00;99.90;;;;;;5054111;28;20440;-59
2023/01/20 12:51:33;;;;;;;5.33;4.10;;;4.00;99.90;;;;;;5053798;28;20836;-57
2023/01/20 12:54:34;;;;;;;5.00;4.40;;;3.90;99.90;;;;;;5054129;28;20440;-57
2023/01/20 12:57:10;;;;;;;6.47;4.00;;;4.00;99.90;;;;;;5061118;28;20446;-57
2023/01/20 12:59:54;;;;;;;10.90;4.30;;;4.00;99.90;;;;;;5057859;28;20439;-57
2023/01/20 13:02:54;;;;;;;5.80;4.30;;;4.00;99.90;;;;;;5053861;28;20470;-57
2023/01/20 13:06:00;;;;;;;4.30;3.63;;;3.90;99.90;;;;;;5053886;28;20440;-57
2023/01/20 13:08:36;;;;;;;4.00;3.60;;;3.80;99.90;;;;;;5053813;28;20456;-57